Mentone, California
Current Conditions -  °F | °C
As of 9:58 PM on Wednesday 28 Jan 2015 (Local Time) from KRIV Reporting Station
Overcast Overcast  
Wind Chill: 56°   Ceiling: 17000
Heat Index: 56°   Visibility: 10mi
Dew Point: 47°   Wind: 6mph
Humidity: 71%   Direction: 320°NW
Pressure: 30.11"   Gusts: NA
Location:  34.07°N, 117.13°W
Report Text: KRIV 290558Z AUTO 32005KT 10SM OVC170 14/09 A3011 RMK AO2 SLP191 T01360085 10193 20136 58001
Loading
Personal Weather Stations






























Interactive Weather Map New forecast layout! Learn more

10-Day Weather Forecast

Advertisements
Track Severe Weather on mobile